createdAt,value
2018-05-09T00:00:15.533Z,19.94
2018-05-09T00:01:15.529Z,19.94
2018-05-09T00:02:15.546Z,19.94
2018-05-09T00:03:15.552Z,19.94
2018-05-09T00:04:15.516Z,19.94
2018-05-09T00:05:15.576Z,19.94
2018-05-09T00:06:15.919Z,19.94
2018-05-09T00:07:15.524Z,19.94
2018-05-09T00:08:15.597Z,20
2018-05-09T00:09:15.830Z,20
2018-05-09T00:10:15.559Z,20
2018-05-09T00:11:15.534Z,20
2018-05-09T00:12:15.528Z,20
2018-05-09T00:13:15.548Z,20
2018-05-09T00:14:15.648Z,20
2018-05-09T00:15:15.531Z,20
2018-05-09T00:16:15.964Z,19.94
2018-05-09T00:17:15.676Z,19.94
2018-05-09T00:18:15.554Z,19.94
2018-05-09T00:19:15.542Z,19.94
2018-05-09T00:20:15.522Z,20
2018-05-09T00:21:15.533Z,19.94
2018-05-09T00:22:15.535Z,20
2018-05-09T00:23:15.579Z,19.94
2018-05-09T00:24:15.532Z,19.94
2018-05-09T00:25:15.513Z,19.94
2018-05-09T00:26:15.561Z,19.94
2018-05-09T00:27:15.543Z,19.94
2018-05-09T00:28:15.538Z,19.94
2018-05-09T00:29:15.551Z,19.94
2018-05-09T00:30:15.558Z,19.94
2018-05-09T00:31:15.758Z,20
2018-05-09T00:32:15.531Z,19.94
2018-05-09T00:33:15.572Z,19.94
2018-05-09T00:34:15.563Z,19.94
2018-05-09T00:35:15.538Z,19.94
2018-05-09T00:36:15.521Z,19.94
2018-05-09T00:37:15.525Z,19.94
2018-05-09T00:38:15.561Z,19.94
2018-05-09T00:39:15.552Z,19.94
2018-05-09T00:40:15.543Z,19.94
2018-05-09T00:41:15.535Z,20
2018-05-09T00:42:15.552Z,19.94
2018-05-09T00:43:15.663Z,19.94
2018-05-09T00:44:15.583Z,19.94
2018-05-09T00:45:15.591Z,19.94
2018-05-09T00:46:15.572Z,19.94
2018-05-09T00:47:15.572Z,19.94
2018-05-09T00:48:15.864Z,19.94
2018-05-09T00:49:15.572Z,19.94
2018-05-09T00:50:16.276Z,19.87
2018-05-09T00:51:15.545Z,19.94
2018-05-09T00:52:15.551Z,19.87
2018-05-09T00:53:15.942Z,19.87
2018-05-09T00:54:15.726Z,19.94
2018-05-09T00:55:15.617Z,19.94
2018-05-09T00:56:15.595Z,19.87
2018-05-09T00:57:15.522Z,19.87
2018-05-09T00:58:15.565Z,19.81
2018-05-09T00:59:15.585Z,19.81
2018-05-09T01:00:15.561Z,19.81
2018-05-09T01:01:15.574Z,19.81
2018-05-09T01:02:15.602Z,19.81
2018-05-09T01:03:15.620Z,19.81
2018-05-09T01:04:15.590Z,19.75
2018-05-09T01:05:15.616Z,19.81
2018-05-09T01:06:15.585Z,19.81
2018-05-09T01:07:15.583Z,19.81
2018-05-09T01:08:15.588Z,19.75
2018-05-09T01:09:15.564Z,19.75
2018-05-09T01:10:15.612Z,19.75
2018-05-09T01:11:15.609Z,19.69
2018-05-09T01:12:15.618Z,19.69
2018-05-09T01:13:15.593Z,19.75
2018-05-09T01:14:15.561Z,19.75
2018-05-09T01:15:15.662Z,19.75
2018-05-09T01:16:15.660Z,19.69
2018-05-09T01:17:15.584Z,19.69
2018-05-09T01:18:15.628Z,19.69
2018-05-09T01:19:15.669Z,19.69
2018-05-09T01:20:15.594Z,19.69
2018-05-09T01:21:15.591Z,19.69
2018-05-09T01:22:15.589Z,19.62
2018-05-09T01:23:15.705Z,19.69
2018-05-09T01:24:15.609Z,19.69
2018-05-09T01:25:15.635Z,19.62
2018-05-09T01:26:16.002Z,19.69
2018-05-09T01:27:15.581Z,19.69
2018-05-09T01:28:15.677Z,19.62
2018-05-09T01:29:15.611Z,19.62
2018-05-09T01:30:15.582Z,19.62
2018-05-09T01:31:15.583Z,19.62
2018-05-09T01:32:15.722Z,19.62
2018-05-09T01:33:15.627Z,19.62
2018-05-09T01:34:15.621Z,19.62
2018-05-09T01:35:15.619Z,19.56
2018-05-09T01:36:15.744Z,19.56
2018-05-09T01:37:15.636Z,19.56
2018-05-09T01:38:15.667Z,19.56
2018-05-09T01:39:15.638Z,19.62
2018-05-09T01:40:15.651Z,19.56
2018-05-09T01:41:15.621Z,19.5
2018-05-09T01:42:15.683Z,19.56
2018-05-09T01:43:15.635Z,19.5
2018-05-09T01:44:15.640Z,19.56
2018-05-09T01:45:15.613Z,19.56
2018-05-09T01:46:15.620Z,19.5
2018-05-09T01:47:15.627Z,19.5
2018-05-09T01:48:15.643Z,19.5
2018-05-09T01:49:15.790Z,19.44
2018-05-09T01:50:15.742Z,19.5
2018-05-09T01:51:15.690Z,19.44
2018-05-09T01:52:15.632Z,19.44
2018-05-09T01:53:15.872Z,19.44
2018-05-09T01:54:15.653Z,19.44
2018-05-09T01:55:15.682Z,19.44
2018-05-09T01:56:15.659Z,19.44
2018-05-09T01:57:15.606Z,19.44
2018-05-09T01:58:15.593Z,19.44
2018-05-09T01:59:15.599Z,19.44
2018-05-09T02:00:15.619Z,19.44
2018-05-09T02:01:15.610Z,19.5
2018-05-09T02:02:15.637Z,19.44
2018-05-09T02:03:15.636Z,19.44
2018-05-09T02:04:15.687Z,19.44
2018-05-09T02:05:15.631Z,19.44
2018-05-09T02:06:15.599Z,19.44
2018-05-09T02:07:15.650Z,19.44
2018-05-09T02:08:15.631Z,19.44
2018-05-09T02:09:15.616Z,19.44
2018-05-09T02:10:15.662Z,19.44
2018-05-09T02:11:15.679Z,19.37
2018-05-09T02:12:15.619Z,19.44
2018-05-09T02:13:15.594Z,19.37
2018-05-09T02:14:15.656Z,19.37
2018-05-09T02:15:16.201Z,19.37
2018-05-09T02:16:15.625Z,19.31
2018-05-09T02:17:15.643Z,19.31
2018-05-09T02:18:15.618Z,19.25
2018-05-09T02:19:15.638Z,19.31
2018-05-09T02:20:15.810Z,19.25
2018-05-09T02:21:15.810Z,19.25
2018-05-09T02:22:15.643Z,19.31
2018-05-09T02:23:15.683Z,19.25
2018-05-09T02:24:15.616Z,19.25
2018-05-09T02:25:15.626Z,19.19
2018-05-09T02:26:15.631Z,19.19
2018-05-09T02:27:15.638Z,19.19
2018-05-09T02:28:15.613Z,19.19
2018-05-09T02:29:15.669Z,19.19
2018-05-09T02:30:15.714Z,19.12
2018-05-09T02:31:17.645Z,19.12
2018-05-09T02:32:15.764Z,19.12
2018-05-09T02:33:15.750Z,19.12
2018-05-09T02:34:15.672Z,19.12
2018-05-09T02:35:15.722Z,19.06
2018-05-09T02:36:15.723Z,19.06
2018-05-09T02:37:15.703Z,19.06
2018-05-09T02:38:15.709Z,19.12
2018-05-09T02:39:15.707Z,19.06
2018-05-09T02:40:15.710Z,19.06
2018-05-09T02:41:15.731Z,19
2018-05-09T02:42:15.694Z,19
2018-05-09T02:43:16.359Z,19
2018-05-09T02:44:15.694Z,18.94
2018-05-09T02:45:15.796Z,18.94
2018-05-09T02:46:15.728Z,18.94
2018-05-09T02:47:15.838Z,18.87
2018-05-09T02:48:15.709Z,18.87
2018-05-09T02:49:15.790Z,18.87
2018-05-09T02:50:15.846Z,18.87
2018-05-09T02:51:15.840Z,18.87
2018-05-09T02:52:15.721Z,18.87
2018-05-09T02:53:15.704Z,18.87
2018-05-09T02:54:15.744Z,18.87
2018-05-09T02:55:15.890Z,18.87
2018-05-09T02:56:15.854Z,18.87
2018-05-09T02:57:15.833Z,18.81
2018-05-09T02:58:15.909Z,18.87
2018-05-09T02:59:15.709Z,18.81
2018-05-09T03:00:15.803Z,18.87
2018-05-09T03:01:15.732Z,18.81
2018-05-09T03:02:15.777Z,18.81
2018-05-09T03:03:15.718Z,18.75
2018-05-09T03:04:15.738Z,18.81
2018-05-09T03:05:15.710Z,18.81
2018-05-09T03:06:15.754Z,18.81
2018-05-09T03:07:15.764Z,18.75
2018-05-09T03:08:15.741Z,18.81
2018-05-09T03:09:15.829Z,18.75
2018-05-09T03:10:15.854Z,18.75
2018-05-09T03:11:15.743Z,18.75
2018-05-09T03:12:15.736Z,18.75
2018-05-09T03:13:15.752Z,18.69
2018-05-09T03:14:15.733Z,18.69
2018-05-09T03:15:15.811Z,18.75
2018-05-09T03:16:15.762Z,18.75
2018-05-09T03:17:15.910Z,18.69
2018-05-09T03:18:15.800Z,18.69
2018-05-09T03:19:15.888Z,18.62
2018-05-09T03:20:15.807Z,18.69
2018-05-09T03:21:15.703Z,18.62
2018-05-09T03:22:15.700Z,18.62
2018-05-09T03:23:15.806Z,18.69
2018-05-09T03:24:15.702Z,18.69
2018-05-09T03:25:15.705Z,18.69
2018-05-09T03:26:15.686Z,18.69
2018-05-09T03:27:15.754Z,18.62
2018-05-09T03:28:15.712Z,18.62
2018-05-09T03:29:15.773Z,18.62
2018-05-09T03:30:15.764Z,18.62
2018-05-09T03:31:15.810Z,18.62
2018-05-09T03:32:15.695Z,18.56
2018-05-09T03:33:15.831Z,18.56
2018-05-09T03:34:15.783Z,18.56
2018-05-09T03:35:15.702Z,18.5
2018-05-09T03:36:15.736Z,18.56
2018-05-09T03:37:15.741Z,18.56
2018-05-09T03:38:15.718Z,18.5
2018-05-09T03:39:15.759Z,18.56
2018-05-09T03:40:15.767Z,18.44
2018-05-09T03:41:15.714Z,18.5
2018-05-09T03:42:15.738Z,18.44
2018-05-09T03:43:15.742Z,18.5
2018-05-09T03:44:15.819Z,18.44
2018-05-09T03:45:15.937Z,18.44
2018-05-09T03:46:15.865Z,18.44
2018-05-09T03:47:15.739Z,18.44
2018-05-09T03:48:15.795Z,18.37
2018-05-09T03:49:15.916Z,18.44
2018-05-09T03:50:15.806Z,18.44
2018-05-09T03:51:15.809Z,18.37
2018-05-09T03:52:15.855Z,18.37
2018-05-09T03:53:16.290Z,18.31
2018-05-09T03:54:15.921Z,18.31
2018-05-09T03:55:15.767Z,18.31
2018-05-09T03:56:15.798Z,18.31
2018-05-09T03:57:15.855Z,18.31
2018-05-09T03:58:15.758Z,18.31
2018-05-09T03:59:15.766Z,18.25
2018-05-09T04:00:15.802Z,18.31
2018-05-09T04:01:15.880Z,18.31
2018-05-09T04:02:15.729Z,18.31
2018-05-09T04:03:15.888Z,18.25
2018-05-09T04:04:15.785Z,18.25
2018-05-09T04:05:15.915Z,18.25
2018-05-09T04:06:15.895Z,18.25
2018-05-09T04:07:15.756Z,18.25
2018-05-09T04:08:15.860Z,18.19
2018-05-09T04:09:15.762Z,18.25
2018-05-09T04:10:15.762Z,18.19
2018-05-09T04:11:15.729Z,18.12
2018-05-09T04:12:16.074Z,18.19
2018-05-09T04:13:16.629Z,18.19
2018-05-09T04:14:15.753Z,18.19
2018-05-09T04:15:15.816Z,18.12
2018-05-09T04:16:15.724Z,18.12
2018-05-09T04:17:15.708Z,18.12
2018-05-09T04:18:15.774Z,18.06
2018-05-09T04:19:15.759Z,18.12
2018-05-09T04:20:15.743Z,18.12
2018-05-09T04:21:15.895Z,18.06
2018-05-09T04:22:15.841Z,18.12
2018-05-09T04:23:15.930Z,18.06
2018-05-09T04:24:15.860Z,18.06
2018-05-09T04:25:15.820Z,18.06
2018-05-09T04:26:15.712Z,18.06
2018-05-09T04:27:15.879Z,18
2018-05-09T04:28:16.816Z,18.06
2018-05-09T04:29:15.766Z,18
2018-05-09T04:30:15.791Z,18
2018-05-09T04:31:15.759Z,18
2018-05-09T04:32:15.771Z,17.94
2018-05-09T04:33:15.747Z,18
2018-05-09T04:34:15.783Z,17.94
2018-05-09T04:35:15.753Z,18
2018-05-09T04:36:16.201Z,17.94
2018-05-09T04:37:15.791Z,17.94
2018-05-09T04:38:15.784Z,17.94
2018-05-09T04:39:15.790Z,17.94
2018-05-09T04:40:15.822Z,17.94
2018-05-09T04:41:15.909Z,17.94
2018-05-09T04:42:15.824Z,17.87
2018-05-09T04:43:15.755Z,17.94
2018-05-09T04:44:15.839Z,17.94
2018-05-09T04:45:15.793Z,17.87
2018-05-09T04:46:15.772Z,17.94
2018-05-09T04:47:15.866Z,17.94
2018-05-09T04:48:15.757Z,17.87
2018-05-09T04:49:16.471Z,17.87
2018-05-09T04:50:15.797Z,17.94
2018-05-09T04:51:15.795Z,17.94
2018-05-09T04:52:15.741Z,17.94
2018-05-09T04:53:15.794Z,17.94
2018-05-09T04:54:15.784Z,17.94
2018-05-09T04:55:15.883Z,17.94
2018-05-09T04:56:15.671Z,18
2018-05-09T04:57:15.696Z,18
2018-05-09T04:58:15.749Z,17.94
2018-05-09T04:59:15.851Z,17.94
2018-05-09T05:00:15.741Z,17.94
2018-05-09T05:01:15.690Z,17.94
2018-05-09T05:02:15.726Z,18
2018-05-09T05:03:15.717Z,18
2018-05-09T05:04:15.700Z,17.94
2018-05-09T05:05:15.751Z,17.94
2018-05-09T05:06:15.827Z,17.87
2018-05-09T05:07:15.735Z,17.81
2018-05-09T05:08:15.889Z,17.69
2018-05-09T05:09:15.755Z,17.62
2018-05-09T05:10:15.784Z,17.56
2018-05-09T05:11:15.727Z,17.56
2018-05-09T05:12:15.707Z,17.56
2018-05-09T05:13:15.710Z,17.44
2018-05-09T05:14:16.633Z,17.37
2018-05-09T05:15:15.800Z,17.44
2018-05-09T05:16:15.773Z,17.44
2018-05-09T05:17:15.749Z,17.44
2018-05-09T05:18:15.735Z,17.44
2018-05-09T05:19:15.809Z,17.44
2018-05-09T05:20:15.755Z,17.44
2018-05-09T05:21:15.777Z,17.5
2018-05-09T05:22:15.911Z,17.5
2018-05-09T05:23:15.701Z,17.56
2018-05-09T05:24:15.799Z,17.56
2018-05-09T05:25:15.723Z,17.62
2018-05-09T05:26:15.732Z,17.69
2018-05-09T05:27:15.804Z,17.69
2018-05-09T05:28:15.754Z,17.75
2018-05-09T05:29:15.710Z,17.69
2018-05-09T05:30:15.708Z,17.69
2018-05-09T05:31:15.685Z,17.69
2018-05-09T05:32:15.729Z,17.69
2018-05-09T05:33:15.743Z,17.69
2018-05-09T05:34:15.728Z,17.69
2018-05-09T05:35:15.741Z,17.69
2018-05-09T05:36:15.724Z,17.69
2018-05-09T05:37:15.801Z,17.69
2018-05-09T05:38:16.152Z,17.69
2018-05-09T05:39:15.745Z,17.69
2018-05-09T05:40:15.714Z,17.75
2018-05-09T05:41:15.725Z,17.75
2018-05-09T05:42:15.730Z,17.75
2018-05-09T05:43:15.780Z,17.81
2018-05-09T05:44:15.757Z,17.81
2018-05-09T05:45:17.650Z,17.87
2018-05-09T05:46:15.743Z,17.87
2018-05-09T05:47:15.770Z,17.87
2018-05-09T05:48:15.781Z,17.94
2018-05-09T05:49:15.895Z,18
2018-05-09T05:50:15.798Z,18
2018-05-09T05:51:15.731Z,18.06
2018-05-09T05:52:15.734Z,18.06
2018-05-09T05:53:15.710Z,18.06
2018-05-09T05:54:15.735Z,18.12
2018-05-09T05:55:15.773Z,18.06
2018-05-09T05:56:15.732Z,18.12
2018-05-09T05:57:15.752Z,18.12
2018-05-09T05:58:15.775Z,18.12
2018-05-09T05:59:15.772Z,18.12
2018-05-09T06:00:15.788Z,18.12
2018-05-09T06:01:15.768Z,18.19
2018-05-09T06:02:15.708Z,18.19
2018-05-09T06:03:15.873Z,18.19
2018-05-09T06:04:15.706Z,18.25
2018-05-09T06:05:15.749Z,18.25
2018-05-09T06:06:15.742Z,18.19
2018-05-09T06:07:15.756Z,18.25
2018-05-09T06:08:15.857Z,18.19
2018-05-09T06:09:15.844Z,18.25
2018-05-09T06:10:15.751Z,18.25
2018-05-09T06:11:15.802Z,18.25
2018-05-09T06:12:15.759Z,18.25
2018-05-09T06:13:15.750Z,18.25
2018-05-09T06:14:15.774Z,18.25
2018-05-09T06:15:15.779Z,18.25
2018-05-09T06:16:15.904Z,18.31
2018-05-09T06:17:16.355Z,18.31
2018-05-09T06:18:15.777Z,18.31
2018-05-09T06:19:15.732Z,18.31
2018-05-09T06:20:15.799Z,18.31
2018-05-09T06:21:15.753Z,18.37
2018-05-09T06:22:15.744Z,18.37
2018-05-09T06:23:15.762Z,18.37
2018-05-09T06:24:16.371Z,18.37
2018-05-09T06:25:15.773Z,18.44
2018-05-09T06:26:15.799Z,18.37
2018-05-09T06:27:15.748Z,18.44
2018-05-09T06:28:15.803Z,18.5
2018-05-09T06:29:15.763Z,18.44
2018-05-09T06:30:15.757Z,18.5
2018-05-09T06:31:15.795Z,18.5
2018-05-09T06:32:15.774Z,18.5
2018-05-09T06:33:15.740Z,18.5
2018-05-09T06:34:15.749Z,18.5
2018-05-09T06:35:15.782Z,18.56
2018-05-09T06:36:15.792Z,18.62
2018-05-09T06:37:15.742Z,18.69
2018-05-09T06:38:15.745Z,18.69
2018-05-09T06:39:15.745Z,18.69
2018-05-09T06:40:15.757Z,18.69
2018-05-09T06:41:15.770Z,18.75
2018-05-09T06:42:15.861Z,18.75
2018-05-09T06:43:15.964Z,18.81
2018-05-09T06:44:15.740Z,18.81
2018-05-09T06:45:15.809Z,18.75
2018-05-09T06:46:15.805Z,18.75
2018-05-09T06:47:15.809Z,18.75
2018-05-09T06:48:15.772Z,18.81
2018-05-09T06:49:15.786Z,18.87
2018-05-09T06:50:15.787Z,18.87
2018-05-09T06:51:15.747Z,18.87
2018-05-09T06:52:15.762Z,18.94
2018-05-09T06:53:15.840Z,18.94
2018-05-09T06:54:15.771Z,19
2018-05-09T06:55:15.748Z,19.06
2018-05-09T06:56:15.733Z,19.12
2018-05-09T06:57:15.843Z,19.19
2018-05-09T06:58:15.988Z,19.19
2018-05-09T06:59:15.811Z,19.19
2018-05-09T07:00:15.758Z,19.25
2018-05-09T07:01:15.769Z,19.25
2018-05-09T07:02:15.766Z,19.31
2018-05-09T07:03:15.766Z,19.31
2018-05-09T07:04:15.789Z,19.37
2018-05-09T07:05:15.790Z,19.44
2018-05-09T07:06:17.215Z,19.44
2018-05-09T07:07:15.749Z,19.5
2018-05-09T07:08:15.758Z,19.56
2018-05-09T07:09:15.789Z,19.56
2018-05-09T07:10:15.768Z,19.62
2018-05-09T07:11:15.762Z,19.69
2018-05-09T07:12:15.773Z,19.69
2018-05-09T07:13:15.793Z,19.75
2018-05-09T07:14:15.779Z,19.81
2018-05-09T07:15:15.806Z,19.81
2018-05-09T07:16:15.872Z,19.87
2018-05-09T07:17:15.762Z,19.87
2018-05-09T07:18:15.989Z,19.94
2018-05-09T07:19:15.794Z,19.94
2018-05-09T07:20:15.769Z,20
2018-05-09T07:21:15.794Z,20
2018-05-09T07:22:16.515Z,20
2018-05-09T07:23:16.338Z,20.06
2018-05-09T07:24:16.066Z,20
2018-05-09T07:25:15.772Z,20.06
2018-05-09T07:26:15.782Z,20.06
2018-05-09T07:27:15.781Z,20.12
2018-05-09T07:28:15.910Z,20.12
2018-05-09T07:29:15.886Z,20.19
2018-05-09T07:30:16.240Z,20.12
2018-05-09T07:31:15.805Z,20.19
2018-05-09T07:32:15.810Z,20.25
2018-05-09T07:33:15.831Z,20.25
2018-05-09T07:34:15.774Z,20.31
2018-05-09T07:35:15.800Z,20.31
2018-05-09T07:36:15.784Z,20.37
2018-05-09T07:37:16.121Z,20.37
2018-05-09T07:38:15.809Z,20.37
2018-05-09T07:39:15.797Z,20.44
2018-05-09T07:40:15.925Z,20.44
2018-05-09T07:41:15.806Z,20.44
2018-05-09T07:42:16.334Z,20.44
2018-05-09T07:43:15.836Z,20.5
2018-05-09T07:44:15.834Z,20.5
2018-05-09T07:45:15.876Z,20.56
2018-05-09T07:46:15.831Z,20.56
2018-05-09T07:47:15.843Z,20.56
2018-05-09T07:48:15.812Z,20.62
2018-05-09T07:49:15.838Z,20.62
2018-05-09T07:50:15.783Z,20.69
2018-05-09T07:51:15.826Z,20.69
2018-05-09T07:52:15.798Z,20.69
2018-05-09T07:53:16.063Z,20.75
2018-05-09T07:54:15.814Z,20.75
2018-05-09T07:55:15.831Z,20.75
2018-05-09T07:56:15.789Z,20.81
2018-05-09T07:57:15.827Z,20.81
2018-05-09T07:58:15.797Z,20.88
2018-05-09T07:59:16.532Z,20.88
2018-05-09T08:00:15.789Z,20.88
2018-05-09T08:01:15.818Z,20.94
2018-05-09T08:02:15.826Z,20.88
2018-05-09T08:03:15.793Z,20.88
2018-05-09T08:04:15.804Z,20.88
2018-05-09T08:05:15.833Z,20.94
2018-05-09T08:06:15.801Z,20.94
2018-05-09T08:07:15.805Z,21
2018-05-09T08:08:15.803Z,20.88
2018-05-09T08:09:15.870Z,20.94
2018-05-09T08:10:15.829Z,20.94
2018-05-09T08:11:15.836Z,20.94
2018-05-09T08:12:16.153Z,21
2018-05-09T08:13:15.825Z,20.94
2018-05-09T08:14:15.799Z,20.94
2018-05-09T08:15:15.800Z,20.94
2018-05-09T08:16:15.855Z,20.94
2018-05-09T08:17:15.824Z,20.88
2018-05-09T08:18:15.809Z,20.88
2018-05-09T08:19:15.824Z,20.81
2018-05-09T08:20:15.903Z,20.88
2018-05-09T08:21:15.814Z,20.88
2018-05-09T08:22:15.867Z,20.88
2018-05-09T08:23:15.855Z,21
2018-05-09T08:24:15.855Z,20.94
2018-05-09T08:25:15.845Z,20.94
2018-05-09T08:26:15.832Z,20.94
2018-05-09T08:27:15.874Z,20.94
2018-05-09T08:28:15.908Z,21
2018-05-09T08:29:15.860Z,21
2018-05-09T08:30:16.265Z,21.06
2018-05-09T08:31:15.902Z,21.12
2018-05-09T08:32:15.896Z,21.12
2018-05-09T08:33:15.989Z,21.12
2018-05-09T08:34:15.864Z,21.19
2018-05-09T08:35:15.873Z,21.19
2018-05-09T08:36:16.674Z,21.19
2018-05-09T08:37:15.842Z,21.19
2018-05-09T08:38:15.844Z,21.25
2018-05-09T08:39:15.852Z,21.25
2018-05-09T08:40:15.842Z,21.31
2018-05-09T08:41:15.855Z,21.31
2018-05-09T08:42:15.867Z,21.31
2018-05-09T08:43:17.113Z,21.31
2018-05-09T08:44:15.900Z,21.37
2018-05-09T08:45:15.838Z,21.37
2018-05-09T08:46:16.007Z,21.31
2018-05-09T08:47:15.820Z,21.37
2018-05-09T08:48:15.831Z,21.25
2018-05-09T08:49:16.511Z,21.25
2018-05-09T08:50:15.856Z,21.25
2018-05-09T08:51:15.832Z,21.19
2018-05-09T08:52:15.870Z,21.25
2018-05-09T08:53:15.914Z,21.12
2018-05-09T08:54:15.829Z,21.19
2018-05-09T08:55:15.945Z,21.19
2018-05-09T08:56:15.868Z,21.19
2018-05-09T08:57:15.832Z,21.19
2018-05-09T08:58:15.897Z,21.25
2018-05-09T08:59:15.872Z,21.25
2018-05-09T09:00:15.968Z,21.31
2018-05-09T09:01:15.854Z,21.37
2018-05-09T09:02:15.862Z,21.31
2018-05-09T09:03:15.880Z,21.44
2018-05-09T09:04:16.444Z,21.44
2018-05-09T09:05:15.883Z,21.44
2018-05-09T09:06:15.870Z,21.5
2018-05-09T09:07:15.863Z,21.5
2018-05-09T09:08:15.892Z,21.56
2018-05-09T09:09:15.920Z,21.62
2018-05-09T09:10:15.853Z,21.62
2018-05-09T09:11:15.911Z,21.69
2018-05-09T09:12:15.929Z,21.69
2018-05-09T09:13:15.876Z,21.75
2018-05-09T09:14:15.850Z,21.69
2018-05-09T09:15:16.452Z,21.69
2018-05-09T09:16:15.925Z,21.75
2018-05-09T09:17:15.863Z,21.75
2018-05-09T09:18:15.913Z,21.81
2018-05-09T09:19:15.977Z,21.81
2018-05-09T09:20:15.864Z,21.87
2018-05-09T09:21:15.854Z,21.87
2018-05-09T09:22:15.866Z,21.87
2018-05-09T09:23:15.903Z,21.94
2018-05-09T09:24:15.848Z,21.94
2018-05-09T09:25:15.841Z,22
2018-05-09T09:26:15.889Z,22
2018-05-09T09:27:15.860Z,22.06
2018-05-09T09:28:15.925Z,22
2018-05-09T09:29:16.755Z,22
2018-05-09T09:30:15.860Z,22
2018-05-09T09:31:15.854Z,22.06
2018-05-09T09:32:15.872Z,22.06
2018-05-09T09:33:15.848Z,22.13
2018-05-09T09:34:15.832Z,22.19
2018-05-09T09:35:15.854Z,22.19
2018-05-09T09:36:15.904Z,22.25
2018-05-09T09:37:15.839Z,22.31
2018-05-09T09:38:15.902Z,22.37
2018-05-09T09:39:15.856Z,22.44
2018-05-09T09:40:15.884Z,22.5
2018-05-09T09:41:15.862Z,22.5
2018-05-09T09:42:15.866Z,22.56
2018-05-09T09:43:15.863Z,22.62
2018-05-09T09:44:15.843Z,22.69
2018-05-09T09:45:15.870Z,22.69
2018-05-09T09:46:15.854Z,22.69
2018-05-09T09:47:15.836Z,22.75
2018-05-09T09:48:15.870Z,22.81
2018-05-09T09:49:15.875Z,22.75
2018-05-09T09:50:15.883Z,22.69
2018-05-09T09:51:15.853Z,22.69
2018-05-09T09:52:15.847Z,22.62
2018-05-09T09:53:15.978Z,22.62
2018-05-09T09:54:15.923Z,22.62
2018-05-09T09:55:15.858Z,22.56
2018-05-09T09:56:15.873Z,22.69
2018-05-09T09:57:15.855Z,22.62
2018-05-09T09:58:15.856Z,22.62
2018-05-09T09:59:15.851Z,22.69
2018-05-09T10:00:15.938Z,22.62
2018-05-09T10:01:15.915Z,22.69
2018-05-09T10:02:15.901Z,22.75
2018-05-09T10:03:15.887Z,22.81
2018-05-09T10:04:15.900Z,22.87
2018-05-09T10:05:15.919Z,22.94
2018-05-09T10:06:15.905Z,22.94
2018-05-09T10:07:15.855Z,23.06
2018-05-09T10:08:15.886Z,23.12
2018-05-09T10:09:15.902Z,23.25
2018-05-09T10:10:15.973Z,23.31
2018-05-09T10:11:15.896Z,23.31
2018-05-09T10:12:15.904Z,23.38
2018-05-09T10:13:15.876Z,23.38
2018-05-09T10:14:15.882Z,23.38
2018-05-09T10:15:15.929Z,23.44
2018-05-09T10:16:16.521Z,23.5
2018-05-09T10:17:15.935Z,23.56
2018-05-09T10:18:15.869Z,23.56
2018-05-09T10:19:16.277Z,23.62
2018-05-09T10:20:15.902Z,23.69
2018-05-09T10:21:15.897Z,23.81
2018-05-09T10:22:15.878Z,23.81
2018-05-09T10:23:16.558Z,23.81
2018-05-09T10:24:16.057Z,23.87
2018-05-09T10:25:15.919Z,23.87
2018-05-09T10:26:15.926Z,23.94
2018-05-09T10:27:15.867Z,23.94
2018-05-09T10:28:15.884Z,23.94
2018-05-09T10:29:15.918Z,24
2018-05-09T10:30:15.967Z,24
2018-05-09T10:31:15.890Z,24
2018-05-09T10:32:15.879Z,24
2018-05-09T10:33:15.929Z,24
2018-05-09T10:34:15.884Z,24.06
2018-05-09T10:35:15.900Z,24.06
2018-05-09T10:36:16.056Z,24.12
2018-05-09T10:37:15.899Z,24.12
2018-05-09T10:38:15.918Z,24
2018-05-09T10:39:15.903Z,24
2018-05-09T10:40:15.934Z,24.06
2018-05-09T10:41:15.915Z,24.12
2018-05-09T10:42:15.907Z,24.06
2018-05-09T10:43:15.912Z,24
2018-05-09T10:44:15.889Z,24
2018-05-09T10:45:15.900Z,24.06
2018-05-09T10:46:15.885Z,24
2018-05-09T10:47:15.911Z,24
2018-05-09T10:48:15.891Z,24
2018-05-09T10:49:15.945Z,24.06
2018-05-09T10:50:15.908Z,24
2018-05-09T10:51:15.911Z,23.94
2018-05-09T10:52:15.920Z,24
2018-05-09T10:53:16.055Z,24.06
2018-05-09T10:54:15.966Z,24.12
2018-05-09T10:55:15.919Z,24.25
2018-05-09T10:56:15.900Z,24.25
2018-05-09T10:57:16.502Z,24.31
2018-05-09T10:58:16.004Z,24.37
2018-05-09T10:59:15.928Z,24.44
2018-05-09T11:00:15.902Z,24.44
2018-05-09T11:01:16.094Z,24.5
2018-05-09T11:02:16.043Z,24.44
2018-05-09T11:03:16.158Z,24.5
2018-05-09T11:04:15.937Z,24.56
2018-05-09T11:05:15.977Z,24.63
2018-05-09T11:06:15.894Z,24.69
2018-05-09T11:07:15.981Z,24.75
2018-05-09T11:08:16.127Z,24.75
2018-05-09T11:09:15.932Z,24.87
2018-05-09T11:10:15.916Z,24.94
2018-05-09T11:11:16.062Z,24.94
2018-05-09T11:12:16.040Z,25
2018-05-09T11:13:16.033Z,25
2018-05-09T11:14:16.710Z,25.06
2018-05-09T11:15:16.076Z,25.12
2018-05-09T11:16:16.104Z,25.12
2018-05-09T11:17:15.979Z,25.19
2018-05-09T11:18:16.230Z,25.25
2018-05-09T11:19:15.983Z,25.25
2018-05-09T11:20:16.005Z,25.25
2018-05-09T11:21:15.940Z,25.31
2018-05-09T11:22:16.035Z,25.31
2018-05-09T11:23:15.950Z,25.37
2018-05-09T11:24:16.563Z,25.44
2018-05-09T11:25:16.122Z,25.5
2018-05-09T11:26:15.961Z,25.56
2018-05-09T11:27:16.098Z,25.56
2018-05-09T11:28:16.098Z,25.56
2018-05-09T11:29:16.115Z,25.62
2018-05-09T11:30:15.976Z,25.69
2018-05-09T11:31:16.441Z,25.69
2018-05-09T11:32:16.132Z,25.69
2018-05-09T11:33:16.095Z,25.69
2018-05-09T11:34:15.919Z,25.62
2018-05-09T11:35:15.937Z,25.62
2018-05-09T11:36:15.939Z,25.62
2018-05-09T11:37:15.991Z,25.69
2018-05-09T11:38:16.071Z,25.75
2018-05-09T11:39:16.092Z,25.81
2018-05-09T11:40:15.910Z,25.81
2018-05-09T11:41:15.997Z,25.81
2018-05-09T11:42:16.036Z,25.69
2018-05-09T11:43:15.940Z,25.75
2018-05-09T11:44:15.937Z,25.81
2018-05-09T11:45:15.939Z,25.81
2018-05-09T11:46:15.948Z,25.75
2018-05-09T11:47:16.010Z,25.75
2018-05-09T11:48:15.945Z,25.69
2018-05-09T11:49:16.018Z,25.5
2018-05-09T11:50:15.951Z,25.37
2018-05-09T11:51:15.943Z,25.31
2018-05-09T11:52:15.921Z,25.19
2018-05-09T11:53:17.761Z,25.12
2018-05-09T11:54:15.951Z,25.25
2018-05-09T11:55:15.961Z,25.25
2018-05-09T11:56:16.036Z,25.31
2018-05-09T11:57:15.988Z,25.25
2018-05-09T11:58:16.134Z,25.37
2018-05-09T11:59:15.951Z,25.5
2018-05-09T12:00:16.064Z,25.44
2018-05-09T12:01:15.991Z,25.44
2018-05-09T12:02:16.559Z,25.31
2018-05-09T12:03:16.030Z,25.19
2018-05-09T12:04:15.959Z,25.25
2018-05-09T12:05:16.066Z,25.37
2018-05-09T12:06:15.992Z,25.44
2018-05-09T12:07:15.975Z,25.5
2018-05-09T12:08:16.160Z,25.5
2018-05-09T12:09:16.042Z,25.56
2018-05-09T12:10:16.539Z,25.62
2018-05-09T12:11:15.982Z,25.56
2018-05-09T12:12:16.086Z,25.5
2018-05-09T12:13:15.967Z,25.56
2018-05-09T12:14:16.049Z,25.56
2018-05-09T12:15:15.969Z,25.62
2018-05-09T12:16:15.969Z,25.62
2018-05-09T12:17:16.004Z,25.62
2018-05-09T12:18:15.972Z,25.56
2018-05-09T12:19:16.091Z,25.56
2018-05-09T12:20:15.953Z,25.5
2018-05-09T12:21:16.005Z,25.44
2018-05-09T12:22:16.131Z,25.5
2018-05-09T12:23:15.953Z,25.5
2018-05-09T12:24:15.969Z,25.62
2018-05-09T12:25:15.980Z,25.69
2018-05-09T12:26:15.952Z,25.75
2018-05-09T12:27:15.954Z,25.81
2018-05-09T12:28:15.961Z,25.88
2018-05-09T12:29:16.151Z,25.94
2018-05-09T12:30:16.098Z,26.06
2018-05-09T12:31:16.034Z,26.12
2018-05-09T12:32:16.030Z,26.19
2018-05-09T12:33:16.085Z,26.19
2018-05-09T12:34:15.997Z,26.31
2018-05-09T12:35:16.048Z,26.31
2018-05-09T12:36:16.004Z,26.25
2018-05-09T12:37:15.968Z,26.31
2018-05-09T12:38:16.046Z,26.37
2018-05-09T12:39:15.984Z,26.31
2018-05-09T12:40:16.271Z,26.37
2018-05-09T12:41:16.131Z,26.31
2018-05-09T12:42:16.066Z,26.19
2018-05-09T12:43:15.970Z,26.25
2018-05-09T12:44:16.032Z,26.19
2018-05-09T12:45:16.095Z,26.19
2018-05-09T12:46:16.144Z,26.19
2018-05-09T12:47:16.132Z,26.12
2018-05-09T12:48:16.044Z,26.06
2018-05-09T12:49:15.991Z,26.12
2018-05-09T12:50:15.996Z,26.12
2018-05-09T12:51:15.962Z,26.19
2018-05-09T12:52:15.970Z,26.25
2018-05-09T12:53:16.046Z,26.31
2018-05-09T12:54:16.030Z,26.37
2018-05-09T12:55:16.010Z,26.37
2018-05-09T12:56:16.001Z,26.37
2018-05-09T12:57:16.261Z,26.5
2018-05-09T12:58:16.058Z,26.5
2018-05-09T12:59:16.021Z,26.62